sensor_id;sensor_type;location;lat;lon;timestamp;pressure;altitude;pressure_sealevel;temperature;humidity
16094;BME280;8151;47.824;12.092;2023-05-08T00:00:22;96480.81;;;16.54;64.44
16094;BME280;8151;47.824;12.092;2023-05-08T00:02:51;96480.63;;;16.56;64.76
16094;BME280;8151;47.824;12.092;2023-05-08T00:05:20;96475.06;;;16.64;64.60
16094;BME280;8151;47.824;12.092;2023-05-08T00:07:50;96475.91;;;16.71;64.41
16094;BME280;8151;47.824;12.092;2023-05-08T00:10:19;96478.59;;;16.71;64.26
16094;BME280;8151;47.824;12.092;2023-05-08T00:12:48;96475.91;;;16.78;64.29
16094;BME280;8151;47.824;12.092;2023-05-08T00:15:16;96471.00;;;16.82;64.31
16094;BME280;8151;47.824;12.092;2023-05-08T00:17:54;96470.16;;;16.81;64.20
16094;BME280;8151;47.824;12.092;2023-05-08T00:20:23;96472.22;;;16.79;64.22
16094;BME280;8151;47.824;12.092;2023-05-08T00:22:53;96471.59;;;16.77;64.31
16094;BME280;8151;47.824;12.092;2023-05-08T00:25:22;96474.47;;;16.76;64.36
16094;BME280;8151;47.824;12.092;2023-05-08T00:27:51;96492.13;;;16.77;64.28
16094;BME280;8151;47.824;12.092;2023-05-08T00:30:20;96488.84;;;16.68;64.45
16094;BME280;8151;47.824;12.092;2023-05-08T00:32:48;96490.44;;;16.49;64.94
16094;BME280;8151;47.824;12.092;2023-05-08T00:35:17;96491.22;;;16.29;65.51
16094;BME280;8151;47.824;12.092;2023-05-08T00:37:45;96493.22;;;16.07;66.00
16094;BME280;8151;47.824;12.092;2023-05-08T00:40:15;96492.31;;;15.93;66.57
16094;BME280;8151;47.824;12.092;2023-05-08T00:42:43;96496.00;;;15.86;66.77
16094;BME280;8151;47.824;12.092;2023-05-08T00:45:12;96500.91;;;15.82;67.04
16094;BME280;8151;47.824;12.092;2023-05-08T00:47:40;96504.41;;;15.83;66.91
16094;BME280;8151;47.824;12.092;2023-05-08T00:50:09;96502.34;;;15.85;67.00
16094;BME280;8151;47.824;12.092;2023-05-08T00:52:42;96503.34;;;15.84;67.34
16094;BME280;8151;47.824;12.092;2023-05-08T00:55:10;96499.31;;;15.94;66.70
16094;BME280;8151;47.824;12.092;2023-05-08T00:57:46;96502.47;;;16.11;66.62
16094;BME280;8151;47.824;12.092;2023-05-08T01:00:16;96497.38;;;16.23;66.22
16094;BME280;8151;47.824;12.092;2023-05-08T01:02:47;96504.81;;;16.34;66.41
16094;BME280;8151;47.824;12.092;2023-05-08T01:05:16;96499.28;;;16.43;66.01
16094;BME280;8151;47.824;12.092;2023-05-08T01:07:45;96498.25;;;16.44;65.86
16094;BME280;8151;47.824;12.092;2023-05-08T01:10:13;96507.25;;;16.36;66.38
16094;BME280;8151;47.824;12.092;2023-05-08T01:12:51;96517.31;;;16.21;66.93
16094;BME280;8151;47.824;12.092;2023-05-08T01:15:28;96516.06;;;16.23;66.97
16094;BME280;8151;47.824;12.092;2023-05-08T01:18:12;96507.47;;;16.34;66.74
16094;BME280;8151;47.824;12.092;2023-05-08T01:20:47;96518.78;;;16.43;66.50
16094;BME280;8151;47.824;12.092;2023-05-08T01:23:38;96516.34;;;16.55;66.47
16094;BME280;8151;47.824;12.092;2023-05-08T01:26:41;96526.44;;;16.60;66.50
16094;BME280;8151;47.824;12.092;2023-05-08T01:32:24;96520.47;;;16.71;65.96
16094;BME280;8151;47.824;12.092;2023-05-08T01:34:59;96522.16;;;16.72;66.20
16094;BME280;8151;47.824;12.092;2023-05-08T01:37:35;96523.56;;;16.74;66.15
16094;BME280;8151;47.824;12.092;2023-05-08T01:40:09;96525.84;;;16.78;66.47
16094;BME280;8151;47.824;12.092;2023-05-08T01:42:47;96527.28;;;16.80;66.39
16094;BME280;8151;47.824;12.092;2023-05-08T01:45:19;96532.28;;;16.83;66.20
16094;BME280;8151;47.824;12.092;2023-05-08T01:47:56;96538.41;;;16.77;66.48
16094;BME280;8151;47.824;12.092;2023-05-08T01:50:32;96532.81;;;16.79;66.72
16094;BME280;8151;47.824;12.092;2023-05-08T01:53:08;96543.16;;;16.82;66.71
16094;BME280;8151;47.824;12.092;2023-05-08T01:55:39;96539.06;;;16.86;66.45
16094;BME280;8151;47.824;12.092;2023-05-08T01:58:10;96545.63;;;16.90;66.53
16094;BME280;8151;47.824;12.092;2023-05-08T02:00:40;96539.47;;;16.89;66.64
16094;BME280;8151;47.824;12.092;2023-05-08T02:03:12;96542.75;;;16.85;66.65
16094;BME280;8151;47.824;12.092;2023-05-08T02:05:41;96547.63;;;16.74;66.96
16094;BME280;8151;47.824;12.092;2023-05-08T02:08:12;96542.47;;;16.66;67.23
16094;BME280;8151;47.824;12.092;2023-05-08T02:10:42;96547.19;;;16.71;67.00
16094;BME280;8151;47.824;12.092;2023-05-08T02:13:12;96547.44;;;16.76;67.09
16094;BME280;8151;47.824;12.092;2023-05-08T02:15:52;96542.91;;;16.77;67.13
16094;BME280;8151;47.824;12.092;2023-05-08T02:18:24;96547.03;;;16.79;67.08
16094;BME280;8151;47.824;12.092;2023-05-08T02:20:55;96547.50;;;16.83;66.80
16094;BME280;8151;47.824;12.092;2023-05-08T02:23:26;96550.97;;;16.83;67.02
16094;BME280;8151;47.824;12.092;2023-05-08T02:25:56;96553.22;;;16.86;66.80
16094;BME280;8151;47.824;12.092;2023-05-08T02:28:26;96552.22;;;16.87;66.96
16094;BME280;8151;47.824;12.092;2023-05-08T02:30:57;96547.06;;;16.86;66.89
16094;BME280;8151;47.824;12.092;2023-05-08T02:33:28;96549.13;;;16.84;67.02
16094;BME280;8151;47.824;12.092;2023-05-08T02:35:57;96550.16;;;16.83;67.11
16094;BME280;8151;47.824;12.092;2023-05-08T02:38:27;96553.00;;;16.81;67.24
16094;BME280;8151;47.824;12.092;2023-05-08T02:40:59;96553.84;;;16.82;67.21
16094;BME280;8151;47.824;12.092;2023-05-08T02:43:29;96557.13;;;16.84;67.32
16094;BME280;8151;47.824;12.092;2023-05-08T02:46:02;96553.84;;;16.82;67.29
16094;BME280;8151;47.824;12.092;2023-05-08T02:48:37;96555.66;;;16.81;67.26
16094;BME280;8151;47.824;12.092;2023-05-08T02:51:15;96556.53;;;16.82;67.09
16094;BME280;8151;47.824;12.092;2023-05-08T02:53:50;96557.50;;;16.81;67.01
16094;BME280;8151;47.824;12.092;2023-05-08T02:56:30;96553.84;;;16.82;67.14
16094;BME280;8151;47.824;12.092;2023-05-08T02:59:12;96553.19;;;16.80;67.11
16094;BME280;8151;47.824;12.092;2023-05-08T03:01:49;96555.44;;;16.76;67.04
16094;BME280;8151;47.824;12.092;2023-05-08T03:04:25;96559.97;;;16.76;67.14
16094;BME280;8151;47.824;12.092;2023-05-08T03:06:57;96562.84;;;16.74;67.34
16094;BME280;8151;47.824;12.092;2023-05-08T03:09:31;96558.72;;;16.71;67.22
16094;BME280;8151;47.824;12.092;2023-05-08T03:12:07;96559.13;;;16.68;67.27
16094;BME280;8151;47.824;12.092;2023-05-08T03:14:41;96560.16;;;16.67;66.83
16094;BME280;8151;47.824;12.092;2023-05-08T03:17:13;96556.03;;;16.65;66.94
16094;BME280;8151;47.824;12.092;2023-05-08T03:19:48;96557.28;;;16.62;66.96
16094;BME280;8151;47.824;12.092;2023-05-08T03:22:19;96554.16;;;16.59;66.83
16094;BME280;8151;47.824;12.092;2023-05-08T03:24:49;96552.53;;;16.58;66.72
16094;BME280;8151;47.824;12.092;2023-05-08T03:27:19;96557.03;;;16.57;66.63
16094;BME280;8151;47.824;12.092;2023-05-08T03:29:48;96562.19;;;16.59;66.67
16094;BME280;8151;47.824;12.092;2023-05-08T03:32:19;96555.22;;;16.58;66.46
16094;BME280;8151;47.824;12.092;2023-05-08T03:34:50;96552.94;;;16.54;66.21
16094;BME280;8151;47.824;12.092;2023-05-08T03:37:19;96556.22;;;16.50;65.99
16094;BME280;8151;47.824;12.092;2023-05-08T03:39:48;96566.66;;;16.45;66.16
16094;BME280;8151;47.824;12.092;2023-05-08T03:42:16;96567.66;;;16.44;66.10
16094;BME280;8151;47.824;12.092;2023-05-08T03:44:49;96564.19;;;16.43;66.24
16094;BME280;8151;47.824;12.092;2023-05-08T03:47:19;96562.34;;;16.44;65.86
16094;BME280;8151;47.824;12.092;2023-05-08T03:49:49;96562.34;;;16.44;66.07
16094;BME280;8151;47.824;12.092;2023-05-08T03:52:18;96567.06;;;16.42;65.79
16094;BME280;8151;47.824;12.092;2023-05-08T03:54:47;96567.91;;;16.42;66.00
16094;BME280;8151;47.824;12.092;2023-05-08T03:57:15;96571.19;;;16.44;65.85
16094;BME280;8151;47.824;12.092;2023-05-08T03:59:49;96574.06;;;16.43;65.98
16094;BME280;8151;47.824;12.092;2023-05-08T04:02:30;96572.41;;;16.42;65.90
16094;BME280;8151;47.824;12.092;2023-05-08T04:05:12;96569.72;;;16.42;65.81
16094;BME280;8151;47.824;12.092;2023-05-08T04:07:47;96571.16;;;16.38;65.79
16094;BME280;8151;47.824;12.092;2023-05-08T04:10:21;96575.88;;;16.36;65.72
16094;BME280;8151;47.824;12.092;2023-05-08T04:12:56;96581.41;;;16.34;65.77
16094;BME280;8151;47.824;12.092;2023-05-08T04:15:30;96594.13;;;16.32;65.58
16094;BME280;8151;47.824;12.092;2023-05-08T04:18:03;96586.53;;;16.29;65.79
16094;BME280;8151;47.824;12.092;2023-05-08T04:20:38;96592.88;;;16.28;65.85
16094;BME280;8151;47.824;12.092;2023-05-08T04:23:13;96601.72;;;16.28;65.59
16094;BME280;8151;47.824;12.092;2023-05-08T04:25:44;96605.41;;;16.27;65.57
16094;BME280;8151;47.824;12.092;2023-05-08T04:28:16;96599.25;;;16.27;65.50
16094;BME280;8151;47.824;12.092;2023-05-08T04:30:45;96607.06;;;16.28;65.51
16094;BME280;8151;47.824;12.092;2023-05-08T04:33:14;96606.03;;;16.29;65.33
16094;BME280;8151;47.824;12.092;2023-05-08T04:35:46;96608.28;;;16.26;65.49
16094;BME280;8151;47.824;12.092;2023-05-08T04:38:15;96610.31;;;16.24;65.49
16094;BME280;8151;47.824;12.092;2023-05-08T04:40:44;96610.75;;;16.21;65.35
16094;BME280;8151;47.824;12.092;2023-05-08T04:43:13;96616.69;;;16.23;65.50
16094;BME280;8151;47.824;12.092;2023-05-08T04:45:41;96618.13;;;16.25;65.03
16094;BME280;8151;47.824;12.092;2023-05-08T04:48:10;96622.44;;;16.26;65.03
16094;BME280;8151;47.824;12.092;2023-05-08T04:50:38;96616.09;;;16.27;64.63
16094;BME280;8151;47.824;12.092;2023-05-08T04:53:08;96620.63;;;16.27;64.62
16094;BME280;8151;47.824;12.092;2023-05-08T04:55:37;96631.06;;;16.28;64.66
16094;BME280;8151;47.824;12.092;2023-05-08T04:58:05;96631.94;;;16.29;64.65
16094;BME280;8151;47.824;12.092;2023-05-08T05:00:36;96628.41;;;16.28;64.62
16094;BME280;8151;47.824;12.092;2023-05-08T05:03:07;96642.59;;;16.29;64.71
16094;BME280;8151;47.824;12.092;2023-05-08T05:05:35;96641.97;;;16.27;64.89
16094;BME280;8151;47.824;12.092;2023-05-08T05:08:05;96646.47;;;16.26;64.76
16094;BME280;8151;47.824;12.092;2023-05-08T05:10:37;96639.69;;;16.24;64.81
16094;BME280;8151;47.824;12.092;2023-05-08T05:13:05;96645.44;;;16.21;64.94
16094;BME280;8151;47.824;12.092;2023-05-08T05:15:36;96645.00;;;16.17;64.84
16094;BME280;8151;47.824;12.092;2023-05-08T05:18:04;96643.34;;;16.16;64.82
16094;BME280;8151;47.824;12.092;2023-05-08T05:20:33;96654.22;;;16.14;65.06
16094;BME280;8151;47.824;12.092;2023-05-08T05:23:02;96644.75;;;16.12;64.61
16094;BME280;8151;47.824;12.092;2023-05-08T05:25:30;96646.19;;;16.08;64.89
16094;BME280;8151;47.824;12.092;2023-05-08T05:28:00;96652.75;;;16.05;64.89
16094;BME280;8151;47.824;12.092;2023-05-08T05:30:29;96651.06;;;16.04;64.96
16094;BME280;8151;47.824;12.092;2023-05-08T05:32:57;96659.91;;;16.05;64.51
16094;BME280;8151;47.824;12.092;2023-05-08T05:35:25;96652.53;;;16.07;64.73
16094;BME280;8151;47.824;12.092;2023-05-08T05:37:56;96651.50;;;16.08;64.46
16094;BME280;8151;47.824;12.092;2023-05-08T05:40:24;96656.41;;;16.04;64.52
16094;BME280;8151;47.824;12.092;2023-05-08T05:43:04;96657.00;;;16.00;64.32
16094;BME280;8151;47.824;12.092;2023-05-08T05:45:32;96667.69;;;16.00;64.64
16094;BME280;8151;47.824;12.092;2023-05-08T05:48:03;96671.38;;;15.99;64.35
16094;BME280;8151;47.824;12.092;2023-05-08T05:50:32;96669.91;;;15.96;64.64
16094;BME280;8151;47.824;12.092;2023-05-08T05:53:00;96662.28;;;15.93;64.16
16094;BME280;8151;47.824;12.092;2023-05-08T05:55:29;96669.47;;;15.92;64.38
16094;BME280;8151;47.824;12.092;2023-05-08T05:57:57;96668.84;;;15.90;64.54
16094;BME280;8151;47.824;12.092;2023-05-08T06:00:27;96669.47;;;15.92;64.46
16094;BME280;8151;47.824;12.092;2023-05-08T06:02:56;96672.97;;;15.93;64.11
16094;BME280;8151;47.824;12.092;2023-05-08T06:05:25;96678.31;;;15.93;64.27
16094;BME280;8151;47.824;12.092;2023-05-08T06:07:54;96680.97;;;15.93;64.26
16094;BME280;8151;47.824;12.092;2023-05-08T06:10:23;96680.78;;;15.94;63.91
16094;BME280;8151;47.824;12.092;2023-05-08T06:12:52;96683.25;;;15.96;64.28
16094;BME280;8151;47.824;12.092;2023-05-08T06:15:21;96681.41;;;15.97;64.09
16094;BME280;8151;47.824;12.092;2023-05-08T06:17:51;96688.19;;;15.99;64.02
16094;BME280;8151;47.824;12.092;2023-05-08T06:20:20;96687.00;;;16.02;64.00
16094;BME280;8151;47.824;12.092;2023-05-08T06:22:51;96698.69;;;16.01;63.75
16094;BME280;8151;47.824;12.092;2023-05-08T06:25:20;96694.81;;;16.03;63.95
16094;BME280;8151;47.824;12.092;2023-05-08T06:27:48;96702.16;;;16.01;63.83
16094;BME280;8151;47.824;12.092;2023-05-08T06:30:17;96704.22;;;15.99;63.76
16094;BME280;8151;47.824;12.092;2023-05-08T06:32:45;96703.38;;;15.99;63.74
16094;BME280;8151;47.824;12.092;2023-05-08T06:35:15;96702.94;;;15.95;63.57
16094;BME280;8151;47.824;12.092;2023-05-08T06:37:45;96710.72;;;15.90;63.45
16094;BME280;8151;47.824;12.092;2023-05-08T06:40:13;96706.13;;;15.84;63.45
16094;BME280;8151;47.824;12.092;2023-05-08T06:42:50;96711.06;;;15.80;63.20
16094;BME280;8151;47.824;12.092;2023-05-08T06:45:19;96716.00;;;15.83;62.99
16094;BME280;8151;47.824;12.092;2023-05-08T06:47:47;96716.81;;;15.84;63.18
16094;BME280;8151;47.824;12.092;2023-05-08T06:50:17;96712.31;;;15.84;63.12
16094;BME280;8151;47.824;12.092;2023-05-08T06:52:45;96715.81;;;15.85;63.21
16094;BME280;8151;47.824;12.092;2023-05-08T06:55:14;96706.81;;;15.86;63.17
16094;BME280;8151;47.824;12.092;2023-05-08T06:57:44;96714.59;;;15.87;63.23
16094;BME280;8151;47.824;12.092;2023-05-08T07:00:13;96710.72;;;15.90;63.08
16094;BME280;8151;47.824;12.092;2023-05-08T07:02:42;96712.16;;;15.92;63.21
16094;BME280;8151;47.824;12.092;2023-05-08T07:05:21;96709.50;;;15.92;63.00
16094;BME280;8151;47.824;12.092;2023-05-08T07:07:50;96717.50;;;15.92;63.04
16094;BME280;8151;47.824;12.092;2023-05-08T07:10:20;96707.84;;;15.91;63.33
16094;BME280;8151;47.824;12.092;2023-05-08T07:12:49;96714.84;;;15.92;63.41
16094;BME280;8151;47.824;12.092;2023-05-08T07:15:17;96716.47;;;15.93;63.26
16094;BME280;8151;47.824;12.092;2023-05-08T07:17:53;96714.66;;;15.94;63.36
16094;BME280;8151;47.824;12.092;2023-05-08T07:20:24;96718.13;;;15.94;63.45
16094;BME280;8151;47.824;12.092;2023-05-08T07:22:52;96720.63;;;15.96;63.32
16094;BME280;8151;47.824;12.092;2023-05-08T07:25:21;96725.97;;;15.96;63.53
16094;BME280;8151;47.824;12.092;2023-05-08T07:27:49;96721.25;;;15.98;63.13
16094;BME280;8151;47.824;12.092;2023-05-08T07:30:18;96726.84;;;16.03;63.09
16094;BME280;8151;47.824;12.092;2023-05-08T07:32:46;96727.06;;;16.08;63.34
16094;BME280;8151;47.824;12.092;2023-05-08T07:35:15;96727.31;;;16.13;63.11
16094;BME280;8151;47.824;12.092;2023-05-08T07:37:46;96727.31;;;16.13;62.98
16094;BME280;8151;47.824;12.092;2023-05-08T07:40:15;96734.75;;;16.18;63.00
16094;BME280;8151;47.824;12.092;2023-05-08T07:42:44;96729.19;;;16.13;63.14
16094;BME280;8151;47.824;12.092;2023-05-08T07:45:12;96727.50;;;16.12;63.16
16094;BME280;8151;47.824;12.092;2023-05-08T07:47:48;96735.16;;;16.15;62.97
16094;BME280;8151;47.824;12.092;2023-05-08T07:50:17;96733.28;;;16.16;62.71
16094;BME280;8151;47.824;12.092;2023-05-08T07:52:47;96734.75;;;16.18;62.83
16094;BME280;8151;47.824;12.092;2023-05-08T07:55:16;96732.50;;;16.22;62.99
16094;BME280;8151;47.824;12.092;2023-05-08T07:57:45;96731.91;;;16.26;62.86
16094;BME280;8151;47.824;12.092;2023-05-08T08:00:14;96733.59;;;16.27;62.81
16094;BME280;8151;47.824;12.092;2023-05-08T08:02:44;96738.91;;;16.27;62.82
16094;BME280;8151;47.824;12.092;2023-05-08T08:05:22;96739.53;;;16.29;62.83
16094;BME280;8151;47.824;12.092;2023-05-08T08:07:52;96744.69;;;16.31;62.67
16094;BME280;8151;47.824;12.092;2023-05-08T08:10:20;96743.66;;;16.32;62.76
16094;BME280;8151;47.824;12.092;2023-05-08T08:12:49;96744.09;;;16.36;62.67
16094;BME280;8151;47.824;12.092;2023-05-08T08:15:18;96742.69;;;16.40;62.21
16094;BME280;8151;47.824;12.092;2023-05-08T08:17:46;96736.16;;;16.42;62.48
16094;BME280;8151;47.824;12.092;2023-05-08T08:20:15;96739.81;;;16.41;62.95
16094;BME280;8151;47.824;12.092;2023-05-08T08:22:44;96731.63;;;16.43;63.42
16094;BME280;8151;47.824;12.092;2023-05-08T08:25:14;96736.38;;;16.47;63.54
16094;BME280;8151;47.824;12.092;2023-05-08T08:27:42;96745.00;;;16.49;63.93
16094;BME280;8151;47.824;12.092;2023-05-08T08:30:12;96740.50;;;16.50;63.97
16094;BME280;8151;47.824;12.092;2023-05-08T08:32:44;96748.31;;;16.51;64.01
16094;BME280;8151;47.824;12.092;2023-05-08T08:35:13;96744.03;;;16.57;64.05
16094;BME280;8151;47.824;12.092;2023-05-08T08:37:53;96746.56;;;16.65;64.13
16094;BME280;8151;47.824;12.092;2023-05-08T08:40:24;96737.31;;;16.68;63.46
16094;BME280;8151;47.824;12.092;2023-05-08T08:42:53;96741.25;;;16.72;63.47
16094;BME280;8151;47.824;12.092;2023-05-08T08:45:22;96741.88;;;16.74;63.38
16094;BME280;8151;47.824;12.092;2023-05-08T08:47:51;96744.72;;;16.72;63.04
16094;BME280;8151;47.824;12.092;2023-05-08T08:50:21;96744.72;;;16.72;63.43
16094;BME280;8151;47.824;12.092;2023-05-08T08:52:56;96742.91;;;16.73;63.18
16094;BME280;8151;47.824;12.092;2023-05-08T08:55:30;96740.44;;;16.71;63.12
16094;BME280;8151;47.824;12.092;2023-05-08T08:58:06;96744.09;;;16.70;62.99
16094;BME280;8151;47.824;12.092;2023-05-08T09:00:40;96744.91;;;16.71;63.02
16094;BME280;8151;47.824;12.092;2023-05-08T09:03:08;96749.25;;;16.72;63.18
16094;BME280;8151;47.824;12.092;2023-05-08T09:05:38;96750.25;;;16.71;62.87
16094;BME280;8151;47.824;12.092;2023-05-08T09:08:07;96754.78;;;16.70;62.97
16094;BME280;8151;47.824;12.092;2023-05-08T09:10:38;96744.91;;;16.71;63.07
16094;BME280;8151;47.824;12.092;2023-05-08T09:13:07;96746.19;;;16.75;62.95
16094;BME280;8151;47.824;12.092;2023-05-08T09:15:35;96747.22;;;16.81;62.77
16094;BME280;8151;47.824;12.092;2023-05-08T09:18:04;96747.50;;;16.86;63.01
16094;BME280;8151;47.824;12.092;2023-05-08T09:20:33;96755.97;;;16.89;62.92
16094;BME280;8151;47.824;12.092;2023-05-08T09:23:02;96750.00;;;16.94;62.77
16094;BME280;8151;47.824;12.092;2023-05-08T09:25:41;96750.63;;;16.96;62.61
16094;BME280;8151;47.824;12.092;2023-05-08T09:28:16;96745.53;;;17.01;62.67
16094;BME280;8151;47.824;12.092;2023-05-08T09:30:49;96751.69;;;17.02;62.54
16094;BME280;8151;47.824;12.092;2023-05-08T09:33:19;96750.88;;;17.01;62.59
16094;BME280;8151;47.824;12.092;2023-05-08T09:35:47;96744.50;;;17.02;62.84
16094;BME280;8151;47.824;12.092;2023-05-08T09:38:35;96742.22;;;17.06;62.75
16094;BME280;8151;47.824;12.092;2023-05-08T09:41:10;96740.63;;;17.11;62.63
16094;BME280;8151;47.824;12.092;2023-05-08T09:43:41;96739.00;;;17.17;62.51
16094;BME280;8151;47.824;12.092;2023-05-08T09:46:20;96743.75;;;17.22;62.61
16094;BME280;8151;47.824;12.092;2023-05-08T09:48:50;96743.97;;;17.27;62.28
16094;BME280;8151;47.824;12.092;2023-05-08T09:51:21;96750.56;;;17.31;62.10
16094;BME280;8151;47.824;12.092;2023-05-08T09:53:50;96748.31;;;17.35;61.94
16094;BME280;8151;47.824;12.092;2023-05-08T09:56:32;96747.28;;;17.42;61.72
16094;BME280;8151;47.824;12.092;2023-05-08T09:59:02;96754.50;;;17.48;61.71
16094;BME280;8151;47.824;12.092;2023-05-08T10:01:33;96748.75;;;17.51;61.69
16094;BME280;8151;47.824;12.092;2023-05-08T10:04:02;96746.09;;;17.51;61.77
16094;BME280;8151;47.824;12.092;2023-05-08T10:06:32;96750.44;;;17.52;61.90
16094;BME280;8151;47.824;12.092;2023-05-08T10:09:11;96757.22;;;17.55;61.86
16094;BME280;8151;47.824;12.092;2023-05-08T10:11:48;96755.59;;;17.61;61.62
16094;BME280;8151;47.824;12.092;2023-05-08T10:14:18;96748.59;;;17.66;61.58
16094;BME280;8151;47.824;12.092;2023-05-08T10:16:48;96751.47;;;17.71;61.56
16094;BME280;8151;47.824;12.092;2023-05-08T10:19:19;96747.78;;;17.79;61.43
16094;BME280;8151;47.824;12.092;2023-05-08T10:21:49;96739.78;;;17.93;61.33
16094;BME280;8151;47.824;12.092;2023-05-08T10:24:19;96739.81;;;17.99;61.18
16094;BME280;8151;47.824;12.092;2023-05-08T10:26:56;96735.88;;;18.02;61.04
16094;BME280;8151;47.824;12.092;2023-05-08T10:29:41;96740.00;;;17.98;61.27
16094;BME280;8151;47.824;12.092;2023-05-08T10:32:11;96730.09;;;17.98;61.31
16094;BME280;8151;47.824;12.092;2023-05-08T10:34:40;96728.84;;;18.01;61.31
16094;BME280;8151;47.824;12.092;2023-05-08T10:37:11;96728.06;;;18.07;61.21
16094;BME280;8151;47.824;12.092;2023-05-08T10:39:41;96720.63;;;18.16;61.16
16094;BME280;8151;47.824;12.092;2023-05-08T10:42:12;96726.00;;;18.22;61.00
16094;BME280;8151;47.824;12.092;2023-05-08T10:44:41;96716.50;;;18.26;61.08
16094;BME280;8151;47.824;12.092;2023-05-08T10:47:15;96728.03;;;18.27;60.94
16094;BME280;8151;47.824;12.092;2023-05-08T10:49:50;96717.31;;;18.27;61.14
16094;BME280;8151;47.824;12.092;2023-05-08T10:52:30;96720.63;;;18.22;61.06
16094;BME280;8151;47.824;12.092;2023-05-08T10:55:14;96711.34;;;18.25;60.97
16094;BME280;8151;47.824;12.092;2023-05-08T10:58:28;96706.38;;;18.35;60.75
16094;BME280;8151;47.824;12.092;2023-05-08T11:01:14;96708.63;;;18.45;60.64
16094;BME280;8151;47.824;12.092;2023-05-08T11:03:51;96705.53;;;18.48;60.67
16094;BME280;8151;47.824;12.092;2023-05-08T11:06:43;96704.50;;;18.56;60.47
16094;BME280;8151;47.824;12.092;2023-05-08T11:09:19;96706.13;;;18.57;60.45
16094;BME280;8151;47.824;12.092;2023-05-08T11:11:58;96708.81;;;18.57;60.41
16094;BME280;8151;47.824;12.092;2023-05-08T11:14:33;96700.97;;;18.55;60.45
16094;BME280;8151;47.824;12.092;2023-05-08T11:17:06;96700.34;;;18.53;60.37
16094;BME280;8151;47.824;12.092;2023-05-08T11:19:36;96698.72;;;18.52;60.34
16094;BME280;8151;47.824;12.092;2023-05-08T11:22:15;96701.81;;;18.56;60.36
16094;BME280;8151;47.824;12.092;2023-05-08T11:24:48;96700.97;;;18.55;60.45
16094;BME280;8151;47.824;12.092;2023-05-08T11:27:17;96706.31;;;18.55;60.53
16094;BME280;8151;47.824;12.092;2023-05-08T11:35:45;96703.31;;;18.12;61.27
16094;BME280;8151;47.824;12.092;2023-05-08T11:38:18;96702.09;;;18.07;61.31
16094;BME280;8151;47.824;12.092;2023-05-08T11:40:49;96696.72;;;18.01;61.42
16094;BME280;8151;47.824;12.092;2023-05-08T11:43:43;96691.38;;;18.14;61.13
16094;BME280;8151;47.824;12.092;2023-05-08T11:46:18;96702.28;;;18.26;60.89
16094;BME280;8151;47.824;12.092;2023-05-08T11:48:47;96702.47;;;18.31;60.88
16094;BME280;8151;47.824;12.092;2023-05-08T11:51:17;96693.81;;;18.36;60.81
16094;BME280;8151;47.824;12.092;2023-05-08T11:53:46;96697.75;;;18.40;60.66
16094;BME280;8151;47.824;12.092;2023-05-08T11:56:15;96699.97;;;18.43;60.68
16094;BME280;8151;47.824;12.092;2023-05-08T11:58:43;96697.09;;;18.44;60.71
16094;BME280;8151;47.824;12.092;2023-05-08T12:01:16;96696.47;;;18.42;60.54
16094;BME280;8151;47.824;12.092;2023-05-08T12:03:46;96700.00;;;18.36;60.63
16094;BME280;8151;47.824;12.092;2023-05-08T12:06:17;96694.66;;;18.36;60.63
16094;BME280;8151;47.824;12.092;2023-05-08T12:08:46;96693.19;;;18.34;60.65
16094;BME280;8151;47.824;12.092;2023-05-08T12:11:21;96693.19;;;18.34;60.94
16094;BME280;8151;47.824;12.092;2023-05-08T12:13:50;96697.94;;;18.38;60.97
16094;BME280;8151;47.824;12.092;2023-05-08T12:16:18;96701.22;;;18.40;60.73
16094;BME280;8151;47.824;12.092;2023-05-08T12:18:48;96694.63;;;18.43;60.67
16094;BME280;8151;47.824;12.092;2023-05-08T12:21:20;96701.03;;;18.42;60.51
16094;BME280;8151;47.824;12.092;2023-05-08T12:23:48;96690.50;;;18.34;60.77
16094;BME280;8151;47.824;12.092;2023-05-08T12:26:17;96697.75;;;18.26;60.99
16094;BME280;8151;47.824;12.092;2023-05-08T12:28:45;96700.84;;;18.17;61.14
16094;BME280;8151;47.824;12.092;2023-05-08T12:31:14;96704.56;;;18.22;61.04
16094;BME280;8151;47.824;12.092;2023-05-08T12:33:43;96695.88;;;18.20;61.09
16094;BME280;8151;47.824;12.092;2023-05-08T12:36:12;96697.94;;;18.18;61.10
16094;BME280;8151;47.824;12.092;2023-05-08T12:38:42;96697.16;;;18.24;61.16
16094;BME280;8151;47.824;12.092;2023-05-08T12:41:11;96700.44;;;18.20;61.22
16094;BME280;8151;47.824;12.092;2023-05-08T12:43:40;96697.16;;;18.11;61.33
16094;BME280;8151;47.824;12.092;2023-05-08T12:46:14;96697.16;;;18.11;61.42
16094;BME280;8151;47.824;12.092;2023-05-08T12:48:43;96691.78;;;18.18;61.25
16094;BME280;8151;47.824;12.092;2023-05-08T12:51:12;96695.72;;;18.15;61.32
16094;BME280;8151;47.824;12.092;2023-05-08T12:53:45;96692.63;;;18.12;61.41
16094;BME280;8151;47.824;12.092;2023-05-08T12:56:20;96695.09;;;18.13;61.44
16094;BME280;8151;47.824;12.092;2023-05-08T12:58:49;96694.25;;;18.19;61.53
16094;BME280;8151;47.824;12.092;2023-05-08T13:01:17;96698.38;;;18.22;61.57
16094;BME280;8151;47.824;12.092;2023-05-08T13:03:51;96694.66;;;18.16;61.63
16094;BME280;8151;47.824;12.092;2023-05-08T13:06:28;96702.06;;;18.14;61.73
16094;BME280;8151;47.824;12.092;2023-05-08T13:08:59;96696.31;;;18.04;61.95
16094;BME280;8151;47.824;12.092;2023-05-08T13:11:28;96697.16;;;18.04;62.05
16094;BME280;8151;47.824;12.092;2023-05-08T13:13:57;96698.41;;;18.02;61.87
16094;BME280;8151;47.824;12.092;2023-05-08T13:16:25;96700.88;;;18.03;61.98
16094;BME280;8151;47.824;12.092;2023-05-08T13:18:54;96694.88;;;18.08;61.87
16094;BME280;8151;47.824;12.092;2023-05-08T13:21:22;96697.97;;;18.12;61.81
16094;BME280;8151;47.824;12.092;2023-05-08T13:23:53;96689.72;;;18.20;62.00
16094;BME280;8151;47.824;12.092;2023-05-08T13:26:24;96692.59;;;18.18;61.90
16094;BME280;8151;47.824;12.092;2023-05-08T13:28:52;96692.22;;;18.15;61.86
16094;BME280;8151;47.824;12.092;2023-05-08T13:31:22;96691.41;;;17.94;62.17